Time;durP1;ratioP1;P1;durP2;ratioP2;P2;SDS_P1;SDS_P2;PMS_P1;PMS_P2;Temp;Humidity;BMP_temperature;BMP_pressure;BME280_temperature;BME280_humidity;BME280_pressure;Samples;Min_cycle;Max_cycle;Signal;HPM_P1;HPM_P2
2023/05/02 00:00:45;;;;;;;;;;;11.40;75.30;;;10.36;nan;96645.00;5014110;28;19921;-85
2023/05/02 00:03:13;;;;;;;;;;;11.40;75.30;;;10.37;nan;96648.56;5007135;28;19922;-85
2023/05/02 00:05:41;;;;;;;;;;;11.40;75.50;;;10.36;nan;96653.22;4976421;28;19922;-84
2023/05/02 00:08:11;;;;;;;;;;;11.30;75.30;;;10.35;nan;96643.34;4981450;28;19928;-85
2023/05/02 00:10:39;;;;;;;;;;;11.30;75.30;;;10.36;nan;96649.66;4996569;28;20233;-85
2023/05/02 00:13:07;;;;;;;;;;;11.30;75.40;;;10.36;nan;96650.50;4996503;28;19921;-85
2023/05/02 00:15:35;;;;;;;;;;;11.40;75.20;;;10.33;nan;96653.72;5013408;28;19928;-85
2023/05/02 00:18:03;;;;;;;;;;;11.30;75.00;;;10.35;nan;96650.72;4996324;28;19928;-85
2023/05/02 00:20:31;;;;;;;;;;;11.30;75.00;;;10.35;nan;96648.00;5012753;28;20102;-85
2023/05/02 00:22:59;;;;;;;;;;;11.40;75.10;;;10.34;nan;96658.13;4995394;28;19928;-85
2023/05/02 00:25:29;;;;;;;;;;;11.30;75.00;;;10.34;nan;96652.66;4976313;28;19944;-84
2023/05/02 00:27:57;;;;;;;;;;;11.30;74.90;;;10.33;nan;96656.47;4993165;28;19928;-84
2023/05/02 00:30:25;;;;;;;;;;;11.30;75.00;;;10.34;nan;96657.28;4976812;28;20120;-85
2023/05/02 00:32:54;;;;;;;;;;;11.30;75.10;;;10.33;nan;96656.47;4992884;28;19922;-84
2023/05/02 00:35:22;;;;;;;;;;;11.30;75.10;;;10.32;nan;96654.81;4992235;28;19922;-84
2023/05/02 00:37:50;;;;;;;;;;;11.30;74.90;;;10.31;nan;96653.16;4976737;28;20221;-84
2023/05/02 00:40:18;;;;;;;;;;;11.30;74.90;;;10.32;nan;96663.03;4993103;28;19922;-85
2023/05/02 00:42:48;;;;;;;;;;;11.30;75.00;;;10.30;nan;96654.25;4992939;28;19928;-85
2023/05/02 00:45:17;;;;;;;;;;;11.30;75.20;;;10.31;nan;96661.38;4975971;28;19944;-84
2023/05/02 00:47:45;;;;;;;;;;;11.30;75.10;;;10.31;nan;96664.09;4976588;28;20121;-85
2023/05/02 00:50:13;;;;;;;;;;;11.30;75.10;;;10.30;nan;96662.44;4992839;28;19922;-85
2023/05/02 00:52:41;;;;;;;;;;;11.30;75.20;;;10.30;nan;96667.91;4992575;28;19929;-84
2023/05/02 00:55:09;;;;;;;;;;;11.30;75.00;;;10.30;nan;96670.66;4975898;28;20127;-85
2023/05/02 00:57:37;;;;;;;;;;;11.30;74.90;;;10.31;nan;96669.56;4976382;28;19922;-85
2023/05/02 01:00:09;;;;;;;;;;;11.30;75.10;;;10.30;nan;96667.91;4992590;28;19928;-85
2023/05/02 01:02:43;;;;;;;;;;;11.30;75.30;;;10.30;nan;96667.91;4976470;28;19922;-85
2023/05/02 01:05:15;;;;;;;;;;;11.30;75.10;;;10.29;nan;96660.78;4975634;28;19922;-85
2023/05/02 01:07:51;;;;;;;;;;;11.30;75.10;;;10.28;nan;96672.81;4976546;28;19922;-85
2023/05/02 01:10:24;;;;;;;;;;;11.30;75.10;;;10.27;nan;96666.53;4976190;28;19928;-84
2023/05/02 01:12:55;;;;;;;;;;;11.30;75.00;;;10.27;nan;96660.22;5008646;28;20129;-84
2023/05/02 01:15:25;;;;;;;;;;;11.30;75.00;;;10.28;nan;96664.63;4991033;28;19929;-85
2023/05/02 01:17:53;;;;;;;;;;;11.30;75.20;;;10.27;nan;96666.53;4992133;28;19928;-84
2023/05/02 01:20:23;;;;;;;;;;;11.30;75.10;;;10.26;nan;96658.59;4976200;28;19922;-85
2023/05/02 01:22:51;;;;;;;;;;;11.30;75.00;;;10.27;nan;96665.69;4975948;28;19922;-84
2023/05/02 01:25:24;;;;;;;;;;;11.30;75.10;;;10.24;nan;96658.84;4992719;28;19922;-85
2023/05/02 01:27:58;;;;;;;;;;;11.20;74.90;;;10.26;nan;96655.84;4976123;28;19922;-85
2023/05/02 01:30:29;;;;;;;;;;;11.30;74.90;;;10.25;nan;96656.94;4992120;28;20140;-84
2023/05/02 01:32:57;;;;;;;;;;;11.20;75.00;;;10.25;nan;96654.22;4991964;28;20209;-84
2023/05/02 01:35:26;;;;;;;;;;;11.20;74.90;;;10.25;nan;96659.69;4975238;28;19928;-84
2023/05/02 01:37:54;;;;;;;;;;;11.20;74.80;;;10.25;nan;96660.50;4992018;28;19922;-84
2023/05/02 01:40:24;;;;;;;;;;;11.20;75.00;;;10.25;nan;96657.75;4975683;28;19922;-85
2023/05/02 01:42:52;;;;;;;;;;;11.20;74.90;;;10.24;nan;96666.22;4991860;28;19930;-85
2023/05/02 01:45:21;;;;;;;;;;;11.20;74.90;;;10.24;nan;96658.84;4974945;28;19922;-84
2023/05/02 01:47:50;;;;;;;;;;;11.20;74.90;;;10.24;nan;96663.50;4991982;28;19921;-84
2023/05/02 01:50:20;;;;;;;;;;;11.20;74.90;;;10.23;nan;96653.63;4992917;28;19921;-85
2023/05/02 01:52:49;;;;;;;;;;;11.20;75.00;;;10.21;nan;96656.59;4991848;28;19921;-84
2023/05/02 01:55:18;;;;;;;;;;;11.20;75.10;;;10.21;nan;96653.88;4974998;28;19922;-84
2023/05/02 01:57:46;;;;;;;;;;;11.20;75.00;;;10.22;nan;96660.19;4991772;28;20245;-84
2023/05/02 02:00:16;;;;;;;;;;;11.20;75.00;;;10.22;nan;96661.00;4975428;28;19922;-84
2023/05/02 02:02:45;;;;;;;;;;;11.20;75.10;;;10.21;nan;96659.34;4975627;28;20094;-84
2023/05/02 02:05:17;;;;;;;;;;;11.20;75.20;;;10.22;nan;96671.13;4991015;28;19922;-84
2023/05/02 02:07:45;;;;;;;;;;;11.20;75.10;;;10.21;nan;96669.47;4991435;28;19921;-84
2023/05/02 02:10:13;;;;;;;;;;;11.20;75.00;;;10.20;nan;96667.81;4975276;28;19936;-84
2023/05/02 02:12:42;;;;;;;;;;;11.20;75.20;;;10.20;nan;96665.91;4975254;28;20128;-84
2023/05/02 02:15:20;;;;;;;;;;;11.20;75.20;;;10.19;nan;96669.75;4974736;28;19922;-84
2023/05/02 02:17:49;;;;;;;;;;;11.20;75.00;;;10.19;nan;96668.91;4991463;28;19944;-84
2023/05/02 02:20:18;;;;;;;;;;;11.20;75.30;;;10.19;nan;96666.16;4975132;28;19922;-85
2023/05/02 02:22:46;;;;;;;;;;;11.20;75.00;;;10.19;nan;96668.91;4992443;28;19928;-84
2023/05/02 02:25:16;;;;;;;;;;;11.20;75.10;;;10.18;nan;96670.81;4993445;28;19943;-84
2023/05/02 02:27:44;;;;;;;;;;;11.20;75.30;;;10.19;nan;96666.16;4993617;28;19928;-84
2023/05/02 02:30:12;;;;;;;;;;;11.20;76.10;;;10.18;nan;96669.97;5008514;28;20158;-84
2023/05/02 02:32:40;;;;;;;;;;;11.20;75.20;;;10.18;nan;96667.25;4974583;28;19922;-84
2023/05/02 02:35:09;;;;;;;;;;;11.20;75.20;;;10.18;nan;96667.25;4974577;28;19922;-84
2023/05/02 02:37:41;;;;;;;;;;;11.20;75.10;;;10.16;nan;96661.19;4974917;28;19929;-84
2023/05/02 02:40:12;;;;;;;;;;;11.20;75.10;;;10.17;nan;96662.84;4991169;28;19989;-83
2023/05/02 02:42:44;;;;;;;;;;;11.20;75.20;;;10.16;nan;96669.41;4992247;28;19921;-84
2023/05/02 02:45:18;;;;;;;;;;;11.10;75.00;;;10.16;nan;96674.88;5006768;28;19936;-84
2023/05/02 02:47:50;;;;;;;;;;;11.10;75.10;;;10.16;nan;96677.59;4991175;28;19926;-84
2023/05/02 02:50:20;;;;;;;;;;;11.10;75.20;;;10.14;nan;96675.97;4991071;28;19922;-84
2023/05/02 02:52:52;;;;;;;;;;;11.10;75.20;;;10.14;nan;96675.97;4990088;28;19921;-84
2023/05/02 02:55:30;;;;;;;;;;;11.10;75.20;;;10.16;nan;96688.56;4989882;28;19928;-83
2023/05/02 02:58:00;;;;;;;;;;;11.10;75.20;;;10.16;nan;96688.56;4990855;28;20120;-85
2023/05/02 03:00:28;;;;;;;;;;;11.10;75.40;;;10.14;nan;96686.09;4990823;28;19922;-84
2023/05/02 03:02:56;;;;;;;;;;;11.20;75.30;;;10.14;nan;96680.63;4990736;28;20213;-84
2023/05/02 03:05:24;;;;;;;;;;;11.10;75.30;;;10.13;nan;96687.97;4990203;28;19922;-84
2023/05/02 03:07:54;;;;;;;;;;;11.10;75.40;;;10.13;nan;96692.63;4990734;28;19922;-84
2023/05/02 03:10:24;;;;;;;;;;;11.10;75.50;;;10.12;nan;96699.19;4990771;28;20121;-84
2023/05/02 03:12:54;;;;;;;;;;;11.10;75.40;;;10.12;nan;96700.03;4990643;28;19921;-84
2023/05/02 03:15:32;;;;;;;;;;;11.10;75.30;;;10.11;nan;96700.25;4990229;28;19928;-84
2023/05/02 03:18:01;;;;;;;;;;;11.10;76.30;;;10.12;nan;96704.66;4990570;28;19921;-84
2023/05/02 03:20:30;;;;;;;;;;;11.10;75.30;;;10.12;nan;96707.41;4990786;28;19951;-84
2023/05/02 03:22:59;;;;;;;;;;;11.10;75.30;;;10.12;nan;96710.97;4990507;28;20120;-84
2023/05/02 03:25:27;;;;;;;;;;;11.10;75.30;;;10.11;nan;96714.78;4973934;28;19926;-84
2023/05/02 03:27:57;;;;;;;;;;;11.20;75.30;;;10.11;nan;96723.00;4974749;28;19928;-83
2023/05/02 03:30:25;;;;;;;;;;;11.10;75.20;;;10.12;nan;96735.59;4974378;28;19922;-84
2023/05/02 03:32:53;;;;;;;;;;;11.10;75.40;;;10.14;nan;96735.34;4974446;28;19922;-83
2023/05/02 03:35:22;;;;;;;;;;;11.10;75.50;;;10.14;nan;96733.41;4989991;28;19922;-84
2023/05/02 03:37:53;;;;;;;;;;;11.10;75.20;;;10.16;nan;96740.53;4991432;28;19928;-83
2023/05/02 03:40:22;;;;;;;;;;;11.20;76.00;;;10.17;nan;96740.31;4982340;28;19936;-83
2023/05/02 03:42:50;;;;;;;;;;;11.20;74.80;;;10.19;nan;96748.25;4993725;28;19928;-83
2023/05/02 03:45:25;;;;;;;;;;;11.20;74.50;;;10.20;nan;96736.22;4977107;28;20137;-83
2023/05/02 03:47:54;;;;;;;;;;;11.20;74.20;;;10.23;nan;96754.88;4993552;28;19928;-83
2023/05/02 03:50:23;;;;;;;;;;;11.20;74.40;;;10.23;nan;96741.19;4977426;28;19928;-83
2023/05/02 03:52:59;;;;;;;;;;;11.20;74.40;;;10.23;nan;96744.75;4977261;28;20205;-83
2023/05/02 03:55:41;;;;;;;;;;;11.20;74.20;;;10.26;nan;96744.25;4976867;28;19928;-84
2023/05/02 03:58:23;;;;;;;;;;;11.30;73.80;;;10.28;nan;96735.75;4993435;28;19928;-84
2023/05/02 04:00:59;;;;;;;;;;;11.30;74.00;;;10.31;nan;96746.19;4977521;28;19928;-83
2023/05/02 04:03:29;;;;;;;;;;;11.30;74.00;;;10.33;nan;96754.19;4977581;28;19921;-83
2023/05/02 04:05:57;;;;;;;;;;;11.30;74.10;;;10.34;nan;96745.69;5009408;28;19928;-83
2023/05/02 04:08:25;;;;;;;;;;;11.40;74.30;;;10.37;nan;96749.81;5008445;28;19921;-83
2023/05/02 04:10:55;;;;;;;;;;;11.40;74.40;;;10.41;nan;96751.00;4996659;28;19922;-83
2023/05/02 04:13:23;;;;;;;;;;;11.40;74.80;;;10.42;nan;96749.94;4996530;28;19922;-83
2023/05/02 04:15:51;;;;;;;;;;;11.40;75.20;;;10.43;nan;96749.66;5012174;28;19922;-84
2023/05/02 04:18:23;;;;;;;;;;;11.40;75.30;;;10.46;nan;96755.72;4996496;28;19921;-82
2023/05/02 04:20:52;;;;;;;;;;;11.40;75.70;;;10.48;nan;96742.59;4996332;28;20221;-83
2023/05/02 04:23:22;;;;;;;;;;;11.50;75.90;;;10.50;nan;96756.84;5009245;28;19921;-84
2023/05/02 04:25:56;;;;;;;;;;;11.50;75.90;;;10.53;nan;96753.59;4992456;28;19922;-83
2023/05/02 04:28:32;;;;;;;;;;;11.50;76.00;;;10.55;nan;96757.75;4976928;28;19921;-83
2023/05/02 04:31:02;;;;;;;;;;;11.60;75.90;;;10.58;nan;96759.13;4976645;28;19929;-84
2023/05/02 04:33:30;;;;;;;;;;;11.60;76.00;;;10.61;nan;96761.38;4993094;28;19928;-83
2023/05/02 04:35:58;;;;;;;;;;;11.60;76.00;;;10.62;nan;96760.28;4993436;28;19944;-83
2023/05/02 04:38:27;;;;;;;;;;;11.60;76.20;;;10.64;nan;96755.38;4992905;28;20221;-83
2023/05/02 04:40:56;;;;;;;;;;;11.60;75.80;;;10.67;nan;96754.03;4976542;28;19922;-83
2023/05/02 04:43:33;;;;;;;;;;;11.70;75.90;;;10.68;nan;96748.28;4992891;28;19929;-83
2023/05/02 04:46:03;;;;;;;;;;;11.70;75.80;;;10.69;nan;96747.19;4992047;28;20228;-84
2023/05/02 04:48:35;;;;;;;;;;;11.70;75.80;;;10.71;nan;96749.69;4986890;28;19928;-83
2023/05/02 04:51:03;;;;;;;;;;;11.70;75.80;;;10.71;nan;96755.19;4995262;28;19943;-83
2023/05/02 04:53:32;;;;;;;;;;;11.70;75.80;;;10.71;nan;96756.00;4985972;28;19922;-83
2023/05/02 04:56:01;;;;;;;;;;;11.70;75.70;;;10.73;nan;96753.81;4975791;28;19929;-83
2023/05/02 04:58:30;;;;;;;;;;;11.80;75.70;;;10.74;nan;96754.63;5008963;28;19922;-82
2023/05/02 05:01:03;;;;;;;;;;;11.80;75.70;;;10.75;nan;96759.03;5008676;28;19922;-83
2023/05/02 05:03:32;;;;;;;;;;;11.80;75.70;;;10.77;nan;96758.78;4976288;28;20521;-83
2023/05/02 05:06:01;;;;;;;;;;;11.80;75.60;;;10.78;nan;96755.78;4975617;28;19922;-83
2023/05/02 05:08:30;;;;;;;;;;;11.80;75.60;;;10.79;nan;96757.44;4992430;28;19922;-83
2023/05/02 05:10:58;;;;;;;;;;;11.80;75.50;;;10.81;nan;96773.59;4976206;28;19940;-83
2023/05/02 05:13:28;;;;;;;;;;;11.80;75.40;;;10.83;nan;96764.06;4992450;28;19922;-83
2023/05/02 05:15:56;;;;;;;;;;;11.90;75.40;;;10.86;nan;96762.72;5008027;28;19929;-83
2023/05/02 05:18:28;;;;;;;;;;;11.90;75.30;;;10.89;nan;96768.50;4976277;28;20117;-83
2023/05/02 05:20:56;;;;;;;;;;;11.90;75.30;;;10.93;nan;96762.50;4992168;28;19928;-83
2023/05/02 05:23:24;;;;;;;;;;;11.90;75.20;;;10.97;nan;96766.38;4992143;28;19925;-83
2023/05/02 05:25:53;;;;;;;;;;;12.00;75.10;;;11.00;nan;96758.47;4991693;28;19928;-83
2023/05/02 05:28:21;;;;;;;;;;;12.00;75.00;;;11.11;nan;96766.78;4975984;28;19922;-83
2023/05/02 05:30:50;;;;;;;;;;;12.10;75.00;;;11.17;nan;96769.31;4975797;28;19922;-83
2023/05/02 05:33:22;;;;;;;;;;;12.10;74.80;;;11.25;nan;96768.00;4975827;28;20094;-83
2023/05/02 05:35:51;;;;;;;;;;;12.20;74.60;;;11.31;nan;96763.41;5007741;28;19921;-83
2023/05/02 05:38:19;;;;;;;;;;;12.30;74.50;;;11.37;nan;96751.38;4991904;28;19928;-83
2023/05/02 05:40:49;;;;;;;;;;;12.30;74.40;;;11.43;nan;96760.47;5008142;28;19930;-84
2023/05/02 05:43:18;;;;;;;;;;;12.40;74.40;;;11.45;nan;96763.75;4975748;28;19921;-83
2023/05/02 05:45:46;;;;;;;;;;;12.40;74.30;;;11.49;nan;96767.66;4991293;28;19922;-83
2023/05/02 05:48:16;;;;;;;;;;;12.50;74.30;;;11.52;nan;96759.72;4975737;28;20235;-83
2023/05/02 05:50:46;;;;;;;;;;;12.50;74.10;;;11.54;nan;96764.97;4991813;28;19922;-83
2023/05/02 05:53:15;;;;;;;;;;;12.50;74.00;;;11.55;nan;96772.09;4991655;28;19929;-83
2023/05/02 05:55:44;;;;;;;;;;;12.50;73.90;;;11.58;nan;96771.53;4991096;28;19928;-83
2023/05/02 05:58:12;;;;;;;;;;;12.50;73.90;;;11.60;nan;96771.31;4991811;28;19922;-83
2023/05/02 06:00:42;;;;;;;;;;;12.60;73.70;;;11.62;nan;96769.94;4975308;28;20122;-84
2023/05/02 06:03:10;;;;;;;;;;;12.60;73.80;;;11.62;nan;96771.84;4991757;28;19929;-84
2023/05/02 06:05:41;;;;;;;;;;;12.60;73.70;;;11.63;nan;96777.06;5008431;28;19928;-84
2023/05/02 06:08:09;;;;;;;;;;;12.60;73.70;;;11.63;nan;96771.59;4994780;28;19927;-84
2023/05/02 06:10:37;;;;;;;;;;;12.60;73.70;;;11.64;nan;96777.91;4994838;28;19921;-84
2023/05/02 06:13:05;;;;;;;;;;;12.60;73.80;;;11.65;nan;96782.28;5011085;28;19936;-83
2023/05/02 06:15:37;;;;;;;;;;;12.60;73.80;;;11.64;nan;96777.91;4994117;28;20097;-84
2023/05/02 06:18:06;;;;;;;;;;;12.60;73.80;;;11.64;nan;96773.25;4994517;28;19922;-84
2023/05/02 06:20:36;;;;;;;;;;;12.60;74.00;;;11.65;nan;96766.69;5010816;28;20209;-83
2023/05/02 06:23:06;;;;;;;;;;;12.60;74.00;;;11.69;nan;96768.88;5010843;28;20121;-83
2023/05/02 06:25:37;;;;;;;;;;;12.60;73.90;;;11.72;nan;96768.34;5010202;28;19928;-83
2023/05/02 06:28:05;;;;;;;;;;;12.70;74.10;;;11.73;nan;96764.53;5010798;28;19922;-84
2023/05/02 06:30:34;;;;;;;;;;;12.70;74.00;;;11.76;nan;96767.56;5010725;28;19922;-84
2023/05/02 06:33:05;;;;;;;;;;;12.70;74.00;;;11.79;nan;96763.47;4994365;28;19921;-83
2023/05/02 06:35:33;;;;;;;;;;;12.70;73.90;;;11.81;nan;96766.78;5010096;28;19921;-83
2023/05/02 06:38:01;;;;;;;;;;;12.70;73.80;;;11.85;nan;96765.16;4994417;28;19928;-83
2023/05/02 06:40:30;;;;;;;;;;;12.80;73.70;;;11.87;nan;96768.44;4994534;28;20117;-83
2023/05/02 06:42:58;;;;;;;;;;;12.80;73.60;;;11.89;nan;96769.03;5010778;28;19921;-83
2023/05/02 06:45:26;;;;;;;;;;;12.80;73.60;;;11.90;nan;96765.19;4993724;28;20116;-83
2023/05/02 06:47:54;;;;;;;;;;;12.80;73.50;;;11.92;nan;96768.50;5010595;28;19922;-84
2023/05/02 06:50:22;;;;;;;;;;;12.80;73.40;;;11.93;nan;96767.41;4994564;28;19984;-84
2023/05/02 06:52:50;;;;;;;;;;;12.90;73.50;;;11.94;nan;96760.81;4994287;28;19980;-83
2023/05/02 06:55:19;;;;;;;;;;;12.90;73.40;;;11.97;nan;96765.75;4993653;28;19921;-84
2023/05/02 06:57:48;;;;;;;;;;;12.90;73.40;;;11.98;nan;96766.63;5010464;28;19921;-84
2023/05/02 07:00:17;;;;;;;;;;;12.90;73.30;;;11.98;nan;96766.63;4993999;28;19928;-83
2023/05/02 07:02:45;;;;;;;;;;;12.90;73.30;;;11.98;nan;96766.63;4994172;28;19921;-83
2023/05/02 07:05:14;;;;;;;;;;;12.90;73.20;;;11.99;nan;96762.81;5010853;28;20212;-83
2023/05/02 07:07:42;;;;;;;;;;;12.90;73.20;;;11.99;nan;96767.44;4993854;28;19957;-83
2023/05/02 07:10:11;;;;;;;;;;;12.90;73.10;;;11.97;nan;96768.50;4993952;28;19921;-83
2023/05/02 07:12:39;;;;;;;;;;;12.90;73.20;;;11.96;nan;96763.28;5010987;28;19921;-83
2023/05/02 07:15:09;;;;;;;;;;;12.90;73.10;;;11.96;nan;96764.09;4996826;28;19921;-83
2023/05/02 07:17:37;;;;;;;;;;;12.90;73.20;;;11.95;nan;96762.47;5013731;28;19922;-83
2023/05/02 07:20:07;;;;;;;;;;;12.90;73.10;;;11.95;nan;96765.19;4997223;28;19921;-83
2023/05/02 07:22:35;;;;;;;;;;;12.90;73.20;;;11.97;nan;96765.75;4997180;28;19925;-83
2023/05/02 07:25:03;;;;;;;;;;;12.90;73.30;;;11.98;nan;96766.63;4995035;28;19927;-83
2023/05/02 07:27:31;;;;;;;;;;;12.90;73.20;;;12.01;nan;96757.03;4977868;28;19922;-83
2023/05/02 07:30:00;;;;;;;;;;;12.90;73.20;;;12.02;nan;96766.94;4977702;28;19928;-84
2023/05/02 07:32:29;;;;;;;;;;;12.90;73.20;;;12.03;nan;96768.59;4993904;28;19922;-83
2023/05/02 07:34:57;;;;;;;;;;;12.90;73.20;;;12.04;nan;96767.50;4977185;28;19928;-84
2023/05/02 07:37:26;;;;;;;;;;;12.90;73.10;;;12.04;nan;96764.75;4977522;28;19921;-83
2023/05/02 07:39:54;;;;;;;;;;;12.90;73.10;;;12.05;nan;96761.72;5010152;28;19922;-83
2023/05/02 07:42:22;;;;;;;;;;;13.00;73.10;;;12.05;nan;96761.72;4993589;28;20231;-84
2023/05/02 07:44:50;;;;;;;;;;;13.00;73.10;;;12.06;nan;96759.81;4977163;28;19928;-83
2023/05/02 07:47:18;;;;;;;;;;;13.00;73.00;;;12.08;nan;96749.38;4993739;28;19922;-84
2023/05/02 07:49:51;;;;;;;;;;;13.00;73.00;;;12.08;nan;96757.63;4977493;28;19922;-83
2023/05/02 07:52:19;;;;;;;;;;;13.00;73.00;;;12.08;nan;96750.22;4993754;28;19922;-84
2023/05/02 07:54:48;;;;;;;;;;;13.00;73.00;;;12.10;nan;96753.53;4993024;28;19928;-84
2023/05/02 07:57:16;;;;;;;;;;;13.00;73.00;;;12.10;nan;96758.19;4977516;28;20231;-84
2023/05/02 07:59:44;;;;;;;;;;;13.00;73.00;;;12.11;nan;96757.94;4988768;23;19922;-83
2023/05/02 08:02:12;;;;;;;;;;;13.00;73.00;;;12.11;nan;96757.94;4992304;28;19928;-83
2023/05/02 08:04:40;;;;;;;;;;;13.00;72.90;;;12.11;nan;96749.69;4977043;28;20270;-83
2023/05/02 08:07:10;;;;;;;;;;;13.00;72.90;;;12.11;nan;96748.84;4993198;28;19936;-83
2023/05/02 08:09:38;;;;;;;;;;;13.00;72.90;;;12.11;nan;96752.44;4976933;28;20117;-83
2023/05/02 08:12:06;;;;;;;;;;;13.00;72.90;;;12.10;nan;96758.19;5009070;28;19944;-84
2023/05/02 08:14:34;;;;;;;;;;;13.00;73.00;;;12.10;nan;96750.78;5030016;23;19922;-87
2023/05/02 08:17:02;;;;;;;;;;;13.00;72.90;;;12.09;nan;96745.53;5012814;28;19928;-88
2023/05/02 08:19:30;;;;;;;;;;;13.00;72.90;;;12.10;nan;96744.44;4996504;28;19922;-87
2023/05/02 08:21:59;;;;;;;;;;;13.00;73.00;;;12.07;nan;96740.34;5012615;28;19928;-87
2023/05/02 08:24:30;;;;;;;;;;;13.00;73.00;;;12.07;nan;96743.06;5012688;28;19928;-88
2023/05/02 08:26:58;;;;;;;;;;;13.00;73.00;;;12.06;nan;96740.63;5012693;28;19928;-88
2023/05/02 08:29:26;;;;;;;;;;;13.00;73.00;;;12.07;nan;96745.00;4996455;28;19926;-87
2023/05/02 08:31:54;;;;;;;;;;;13.00;72.90;;;12.06;nan;96748.84;5012500;28;19922;-88
2023/05/02 08:34:22;;;;;;;;;;;13.00;73.00;;;12.05;nan;96745.25;4996053;28;19921;-89
2023/05/02 08:36:50;;;;;;;;;;;13.00;73.00;;;12.04;nan;96743.59;5013612;28;19928;-88
2023/05/02 08:39:18;;;;;;;;;;;13.00;73.00;;;12.03;nan;96733.72;4996129;28;19922;-88
2023/05/02 08:41:47;;;;;;;;;;;13.00;73.10;;;12.00;nan;96723.31;4995878;28;19923;-89
2023/05/02 08:44:16;;;;;;;;;;;13.00;73.10;;;12.01;nan;96727.66;4996130;28;19921;-88
2023/05/02 08:46:44;;;;;;;;;;;13.00;73.20;;;12.01;nan;96726.84;4996059;28;19944;-88
2023/05/02 08:49:12;;;;;;;;;;;13.00;74.10;;;12.00;nan;96731.53;4996053;28;20220;-87
2023/05/02 08:51:40;;;;;;;;;;;13.00;73.20;;;11.99;nan;96724.41;4995927;28;19928;-88
2023/05/02 08:54:08;;;;;;;;;;;13.00;73.30;;;11.97;nan;96718.31;5012230;28;19921;-87
2023/05/02 08:56:37;;;;;;;;;;;12.90;73.30;;;11.97;nan;96719.13;4995947;28;19940;-89
2023/05/02 08:59:08;;;;;;;;;;;12.90;73.40;;;11.95;nan;96713.06;5010986;28;19922;-89
2023/05/02 09:01:36;;;;;;;;;;;12.90;73.40;;;11.95;nan;96713.06;4979570;28;19928;-88
2023/05/02 09:04:04;;;;;;;;;;;12.90;73.50;;;11.94;nan;96716.91;4979547;28;19921;-88
2023/05/02 09:10:40;;;;;;;;;;;12.90;73.60;;;11.92;nan;96723.75;5030478;28;19913;-88
2023/05/02 09:13:29;;;;;;;;;;;12.90;73.60;;;11.89;nan;96714.16;4998648;28;19929;-88
2023/05/02 09:15:59;;;;;;;;;;;12.90;73.60;;;11.88;nan;96720.72;5012297;28;19928;-88
2023/05/02 09:18:29;;;;;;;;;;;12.80;73.60;;;11.85;nan;96713.03;4997223;28;19991;-88
2023/05/02 09:20:58;;;;;;;;;;;12.90;73.80;;;11.87;nan;96712.78;5014976;28;19921;-87
2023/05/02 09:23:36;;;;;;;;;;;12.80;73.70;;;11.85;nan;96713.03;4998509;28;19927;-88
2023/05/02 09:26:15;;;;;;;;;;;12.80;73.80;;;11.84;nan;96705.88;4998785;28;19921;-88
2023/05/02 09:28:46;;;;;;;;;;;12.80;73.80;;;11.83;nan;96704.22;4998406;28;20812;-88
2023/05/02 09:31:16;;;;;;;;;;;12.80;73.90;;;11.80;nan;96699.28;4998780;28;19921;-87
2023/05/02 09:33:45;;;;;;;;;;;12.80;74.00;;;11.79;nan;96703.13;4998591;28;19928;-88
2023/05/02 09:36:14;;;;;;;;;;;12.80;73.90;;;11.79;nan;96692.97;5014358;28;19921;-88
2023/05/02 09:38:42;;;;;;;;;;;12.80;74.00;;;11.78;nan;96696.81;5014690;28;20243;-88
2023/05/02 09:41:10;;;;;;;;;;;12.80;74.00;;;11.77;nan;96689.66;5014913;28;19921;-88
2023/05/02 09:43:39;;;;;;;;;;;12.80;74.00;;;11.78;nan;96690.50;4998001;28;20116;-87
2023/05/02 09:46:08;;;;;;;;;;;12.80;74.10;;;11.77;nan;96688.84;4998500;28;19921;-88
2023/05/02 09:51:33;;;;;;;;;;;12.70;74.10;;;11.76;68.58;96688.00;4346736;32;19909;-88
2023/05/02 09:54:02;;;;;;;;;;;12.70;74.20;;;11.76;68.70;96681.72;5068914;28;34373;-88
2023/05/02 09:56:30;;;;;;;;;;;12.70;74.20;;;11.75;68.61;96674.56;5087142;28;19920;-87
2023/05/02 09:59:16;;;;;;;;;;;12.70;74.30;;;11.75;68.78;96674.56;5086984;28;19920;-88
2023/05/02 10:01:44;;;;;;;;;;;12.70;74.30;;;11.73;68.82;96674.00;5070306;28;19921;-88
2023/05/02 10:04:15;;;;;;;;;;;12.70;74.40;;;11.73;68.92;96672.09;5070114;28;19927;-88
2023/05/02 10:06:44;;;;;;;;;;;12.70;74.40;;;11.73;68.98;96671.25;5087054;28;19942;-88
2023/05/02 10:09:12;;;;;;;;;;;12.70;74.40;;;11.72;68.88;96666.88;5086803;28;19927;-88
2023/05/02 10:11:41;;;;;;;;;;;12.70;74.50;;;11.72;68.88;96673.19;5103880;28;19920;-88
2023/05/02 10:14:09;;;;;;;;;;;12.70;74.50;;;11.73;68.88;96669.38;5086672;28;19920;-88
2023/05/02 10:16:40;;;;;;;;;;;12.70;74.60;;;11.73;68.82;96668.53;5103700;28;19920;-87
2023/05/02 10:19:09;;;;;;;;;;;12.70;74.60;;;11.72;68.96;96666.88;5120609;28;19920;-88
2023/05/02 10:21:37;;;;;;;;;;;12.70;74.60;;;11.71;68.92;96657.00;5086765;28;20215;-88
2023/05/02 10:24:07;;;;;;;;;;;12.70;74.60;;;11.71;69.20;96663.31;5086453;28;19927;-88
2023/05/02 10:26:35;;;;;;;;;;;12.70;75.40;;;11.70;69.22;96649.84;5086684;28;19926;-87
2023/05/02 10:29:03;;;;;;;;;;;12.70;74.70;;;11.71;69.17;96648.75;5086467;28;19926;-88
2023/05/02 10:31:33;;;;;;;;;;;12.70;74.70;;;11.71;68.83;96651.50;5086491;28;20234;-88
2023/05/02 10:34:01;;;;;;;;;;;12.70;74.70;;;11.69;69.00;96650.94;5086612;28;19991;-90
2023/05/02 10:36:32;;;;;;;;;;;12.70;74.70;;;11.68;69.03;96652.06;5086413;28;19920;-88
2023/05/02 10:39:00;;;;;;;;;;;12.70;74.70;;;11.69;68.96;96650.94;5069620;28;19935;-89
2023/05/02 10:41:31;;;;;;;;;;;12.70;74.70;;;11.68;68.91;96643.84;5086333;28;19928;-88
2023/05/02 10:44:01;;;;;;;;;;;12.70;74.80;;;11.66;69.01;96628.47;5069450;28;20124;-89
2023/05/02 10:46:33;;;;;;;;;;;12.70;74.70;;;11.67;69.16;96634.75;5086378;28;19927;-87
2023/05/02 10:49:01;;;;;;;;;;;12.70;74.70;;;11.65;69.08;96632.28;5087305;28;19934;-87
2023/05/02 10:51:32;;;;;;;;;;;12.70;74.80;;;11.68;69.04;96639.16;5069505;28;20204;-88
2023/05/02 10:54:19;;;;;;;;;;;12.70;74.80;;;11.68;69.04;96636.41;5085932;28;19927;-88
2023/05/02 10:57:08;;;;;;;;;;;12.70;74.80;;;11.68;69.06;96635.59;5086119;28;19921;-87
2023/05/02 10:59:37;;;;;;;;;;;12.70;74.90;;;11.65;69.23;96632.28;5085905;28;19920;-88
2023/05/02 11:02:05;;;;;;;;;;;12.70;74.80;;;11.68;68.92;96638.34;5060011;28;20238;-87
2023/05/02 11:05:01;;;;;;;;;;;12.60;74.80;;;11.66;69.26;96633.94;5089393;28;20204;-87
2023/05/02 11:07:29;;;;;;;;;;;12.70;74.90;;;11.66;69.13;96635.84;5072747;28;20234;-87
2023/05/02 11:10:25;;;;;;;;;;;12.60;74.80;;;11.66;68.99;96638.59;5073373;28;19927;-87
2023/05/02 11:12:55;;;;;;;;;;;12.70;74.90;;;11.65;69.22;96634.19;5072485;28;20230;-88
2023/05/02 11:15:59;;;;;;;;;;;12.60;74.80;;;11.65;69.40;96637.78;5072553;28;19927;-87
2023/05/02 11:18:27;;;;;;;;;;;12.60;74.80;;;11.65;69.44;96628.72;5071221;28;19920;-88
2023/05/02 11:20:55;;;;;;;;;;;12.60;74.90;;;11.64;69.51;96636.13;5072397;28;19920;-87
2023/05/02 11:23:25;;;;;;;;;;;12.60;74.90;;;11.64;69.16;96625.16;5071169;28;19921;-88
2023/05/02 11:25:59;;;;;;;;;;;12.60;74.90;;;11.65;69.27;96620.50;5089104;28;20239;-87
2023/05/02 11:28:49;;;;;;;;;;;12.60;75.00;;;11.64;69.50;96627.06;5072142;28;19927;-88
2023/05/02 11:32:02;;;;;;;;;;;12.60;75.00;;;11.64;69.22;96627.91;5031233;28;19927;-88
2023/05/02 11:34:42;;;;;;;;;;;12.70;75.10;;;11.64;69.65;96624.31;5008507;28;19943;-88
2023/05/02 11:37:14;;;;;;;;;;;12.60;75.00;;;11.64;69.71;96619.69;5068880;28;19943;-87
2023/05/02 11:39:42;;;;;;;;;;;12.60;75.00;;;11.64;69.64;96621.56;5035288;28;19966;-87
2023/05/02 11:42:10;;;;;;;;;;;12.60;75.00;;;11.63;69.23;96607.06;5035462;28;19920;-87
2023/05/02 11:44:58;;;;;;;;;;;12.60;75.00;;;11.64;69.57;96610.59;5051763;28;19921;-88
2023/05/02 11:47:28;;;;;;;;;;;12.60;75.10;;;11.64;69.78;96611.44;5068840;28;19921;-87
2023/05/02 11:49:56;;;;;;;;;;;12.60;75.10;;;11.65;69.54;96604.03;5035023;28;20208;-87
2023/05/02 11:52:24;;;;;;;;;;;12.60;75.10;;;11.64;69.32;96608.72;5052002;28;19927;-87